Nearby METAR Reports

 

KSJC - San Jose, California, USA
Distance from station: NØ 14km
Oppdatert: 29/01/2023 02:53
Few Clouds
Few Clouds
 Vind fra N
Vind: N 17 km/h
Temperatur: 11°C
Duggpunkt: 6°C
Fuktighet: 72%
Barometer: 1014.9 hPa
Clouds: Few Clouds
Visibility: 16 km
Cloud details: Few Clouds 518 m
Few Clouds 762 m
Few Clouds 2438 m
2023/01/29 01:53 KSJC 290153Z 35009KT 10SM FEW017 FEW025 FEW080 11/06 A2997 RMK AO2 SLP148 T01110061
KNUQ - Moffett Nas/Mtn, California, USA
Distance from station: N 14km
Oppdatert: 29/01/2023 03:35
Overskyet
Overskyet
 Vind fra NV
Vind: NV 11 km/h, Vindkast: 20 km/h
Temperatur: 10°C
Wind Chill: 8°C
Duggpunkt: 5°C
Fuktighet: 71%
Barometer: 1015.2 hPa
Clouds: Overskyet
Visibility: 16 km
Cloud details: Overskyet 1006 m
2023/01/29 02:35 KNUQ 290235Z AUTO 31006G11KT 10SM OVC033 10/05 A2998 RMK AO2
 
KPAO - Palo Alto, California, USA
Distance from station: NNV 23km
Oppdatert: 29/01/2023 02:47
Few Clouds
Few Clouds
 Vind fra V
Vind: V 17 km/h
Temperatur: 10°C
Wind Chill: 8°C
Duggpunkt: 6°C
Fuktighet: 76%
Barometer: 1015.2 hPa
Clouds: Few Clouds
Visibility: 16 km
Cloud details: Few Clouds 457 m
2023/01/29 01:47 KPAO 290147Z 28009KT 10SM FEW015 10/06 A2998
KRHV - San Jose/Reid, California, USA
Distance from station: ØNØ 19km
Oppdatert: 29/01/2023 02:47
Few Clouds
Few Clouds
 Vind fra NNV
Vind: NNV 28 km/h
Temperatur: 11°C
Duggpunkt: 7°C
Fuktighet: 77%
Barometer: 1014.9 hPa
Clouds: Few Clouds
Visibility: 16 km
Cloud details: Few Clouds 1219 m
2023/01/29 01:47 KRHV 290147Z 33015KT 10SM FEW040 11/07 A2997
 
KOAK - Oakland, California, USA
Distance from station: NNV 50km
Oppdatert: 29/01/2023 02:53
Hovedsaklig skyet
Hovedsaklig skyet
 Vind fra V
Vind: V 19 km/h
Temperatur: 11°C
Duggpunkt: 7°C
Fuktighet: 77%
Barometer: 1014.9 hPa
Clouds: Hovedsaklig skyet
Visibility: 16 km
Cloud details: Hovedsaklig skyet 610 m
Hovedsaklig skyet 2438 m
2023/01/29 01:53 KOAK 290153Z 26010KT 10SM BKN020 BKN080 11/07 A2997 RMK AO2 SLP149 T01060067
KSQL - San Carlos Airpo, California, USA
Distance from station: NV 34km
Oppdatert: 29/01/2023 03:47
Hovedsaklig skyet
Hovedsaklig skyet
 Vind fra V
Vind: V 19 km/h
Temperatur: 10°C
Wind Chill: 7°C
Duggpunkt: 5°C
Fuktighet: 71%
Barometer: 1015.6 hPa
Clouds: Hovedsaklig skyet
Visibility: 16 km
Cloud details: Hovedsaklig skyet 549 m
2023/01/29 02:47 KSQL 290247Z 26010KT 10SM BKN018 10/05 A2999
 
KSFO - San Francisco, California, USA
Distance from station: NV 49km
Oppdatert: 29/01/2023 02:56
Hovedsaklig skyet
Hovedsaklig skyet
 Vind fra V
Vind: V 20 km/h, Vindkast: 37 km/h
Temperatur: 11°C
Duggpunkt: 6°C
Fuktighet: 72%
Barometer: 1014.6 hPa
Clouds: Hovedsaklig skyet
Visibility: 16 km
Cloud details: Hovedsaklig skyet 518 m
2023/01/29 01:56 KSFO 290156Z 26011G20KT 10SM BKN017 11/06 A2996 RMK AO2 SLP146 T01110061 $
KE16 - San Martin, California, USA
Distance from station: ØSØ 43km
Oppdatert: 29/01/2023 03:35
Overskyet
Overskyet
 Vind fra SSØ
Vind: SSØ 6 km/h
Temperatur: 10°C
Duggpunkt: 7°C
Fuktighet: 82%
Barometer: 1015.6 hPa
Clouds: Overskyet
Visibility: 16 km
Cloud details: Hovedsaklig skyet 853 m
Overskyet 1006 m
2023/01/29 02:35 KE16 290235Z AUTO 15003KT 10SM BKN028 OVC033 10/07 A2999 RMK AO2 PWINO PNO
 
KWVI - Watsonville, California, USA
Distance from station: SSØ 44km
Oppdatert: 29/01/2023 02:53
Klart
Klart
 Vind fra Ø
Vind: Ø 9 km/h
Temperatur: 9°C
Wind Chill: 7°C
Duggpunkt: 8°C
Fuktighet: 94%
Barometer: 1014.9 hPa
Clouds: Klart
Visibility: 16 km
2023/01/29 01:53 KWVI 290153Z AUTO 08005KT 10SM CLR 09/08 A2997 RMK AO2 SLP150 T00940078
KHAF - Half Moon Bay, California, USA
Distance from station: VNV 50km
Oppdatert: 29/01/2023 03:35
Overskyet
Overskyet
 Vind fra NV
Vind: NV 17 km/h, Vindkast: 28 km/h
Temperatur: 10°C
Wind Chill: 8°C
Duggpunkt: 7°C
Fuktighet: 82%
Barometer: 1015.6 hPa
Clouds: Overskyet
Visibility: 11 km
Cloud details: Overskyet 701 m
2023/01/29 02:35 KHAF 290235Z AUTO 32009G15KT 7SM OVC023 10/07 A2999 RMK AO2
 
KHWD - Hayward, California, USA
Distance from station: N 44km
Oppdatert: 29/01/2023 03:01
Hovedsaklig skyet
Hovedsaklig skyet
 Vind fra V
Vind: V 15 km/h
Temperatur: 11°C
Duggpunkt: 7°C
Fuktighet: 77%
Barometer: 1014.9 hPa
Clouds: Hovedsaklig skyet
Visibility: 16 km
Cloud details: Hovedsaklig skyet 610 m
2023/01/29 02:01 KHWD 290201Z 26008KT 10SM BKN020 11/07 A2997 RMK AO2 T01060067 $
KLVK - Livermore, California, USA
Distance from station: NNØ 51km
Oppdatert: 29/01/2023 02:53
Klart
Klart
 Vind fra V
Vind: V 22 km/h
Temperatur: 9°C
Wind Chill: 6°C
Duggpunkt: 6°C
Fuktighet: 82%
Barometer: 1014.6 hPa
Clouds: Klart
Visibility: 16 km
2023/01/29 01:53 KLVK 290153Z 28012KT 10SM CLR 09/06 A2996 RMK AO2 SLP145 T00890061